Carpenter, Iowa
Current Conditions -  °F | °C
As of 9:55 PM on Saturday 22 Nov 2014 (Local Time) from KAUM Reporting Station
Drizzle Drizzle  
Wind Chill: 39°   Ceiling: 200
Heat Index: 45°   Visibility: 0.25mi
Dew Point: 45°   Wind: 10mph
Humidity: 100%   Direction: 170°S
Pressure: 29.59"   Gusts: 17mph
Location:  43.41°N, 93.01°W
Report Text: KAUM 230355Z AUTO 17009G15KT 1/4SM DZ OVC002 07/07 A2959 RMK AO2
Loading
Personal Weather Stations






























Interactive Weather Map New forecast layout! Learn more

10-Day Weather Forecast

Advertisements
Track Severe Weather on mobile